createdAt,value
2018-10-19T00:01:23.404Z,83.60
2018-10-19T00:03:52.593Z,83.30
2018-10-19T00:06:24.771Z,83.90
2018-10-19T00:08:54.359Z,83.40
2018-10-19T00:11:23.545Z,80.60
2018-10-19T00:13:53.535Z,80.10
2018-10-19T00:16:23.465Z,81.90
2018-10-19T00:18:52.909Z,81.40
2018-10-19T00:21:24.224Z,82.30
2018-10-19T00:23:55.707Z,81.60
2018-10-19T00:26:25.816Z,79.70
2018-10-19T00:28:55.002Z,74.90
2018-10-19T00:31:24.353Z,76.80
2018-10-19T00:33:53.689Z,80.30
2018-10-19T00:36:23.762Z,85.30
2018-10-19T00:38:53.196Z,86.40
2018-10-19T00:41:23.762Z,86.70
2018-10-19T00:43:53.304Z,86.60
2018-10-19T00:46:24.501Z,86.50
2018-10-19T00:48:53.728Z,87.00
2018-10-19T00:51:23.860Z,85.60
2018-10-19T00:53:53.936Z,81.50
2018-10-19T00:56:25.127Z,81.30
2018-10-19T00:58:54.539Z,80.50
2018-10-19T01:01:24.499Z,82.40
2018-10-19T01:03:54.974Z,81.40
2018-10-19T01:06:27.571Z,82.70
2018-10-19T01:08:56.842Z,82.40
2018-10-19T01:11:26.116Z,82.60
2018-10-19T01:13:55.303Z,80.80
2018-10-19T01:16:26.307Z,80.50
2018-10-19T01:18:55.848Z,77.90
2018-10-19T01:21:27.021Z,77.00
2018-10-19T01:23:57.904Z,76.60
2018-10-19T01:26:27.152Z,77.40
2018-10-19T01:28:56.415Z,78.00
2018-10-19T01:31:26.560Z,77.80
2018-10-19T01:33:55.898Z,77.80
2018-10-19T01:36:31.788Z,77.80
2018-10-19T01:39:01.051Z,79.10
2018-10-19T01:41:34.183Z,80.70
2018-10-19T01:44:04.112Z,81.50
2018-10-19T01:46:33.342Z,80.40
2018-10-19T01:49:02.690Z,81.30
2018-10-19T01:51:32.159Z,82.50
2018-10-19T01:54:01.655Z,84.40
2018-10-19T01:56:31.117Z,84.60
2018-10-19T01:59:00.334Z,84.00
2018-10-19T02:01:29.541Z,79.00
2018-10-19T02:03:58.961Z,77.60
2018-10-19T02:06:29.329Z,77.50
2018-10-19T02:09:00.975Z,78.00
2018-10-19T02:11:30.839Z,78.00
2018-10-19T02:14:00.246Z,80.40
2018-10-19T02:16:29.465Z,80.60
2018-10-19T02:18:58.727Z,82.20
2018-10-19T02:21:30.151Z,82.70
2018-10-19T02:23:59.630Z,85.30
2018-10-19T02:26:29.849Z,85.50
2018-10-19T02:28:59.202Z,84.40
2018-10-19T02:31:29.278Z,82.10
2018-10-19T02:33:58.502Z,87.50
2018-10-19T02:36:29.815Z,87.60
2018-10-19T02:39:00.000Z,88.70
2018-10-19T02:41:29.195Z,87.10
2018-10-19T02:43:58.602Z,88.00
2018-10-19T02:46:32.760Z,86.60
2018-10-19T02:49:02.965Z,86.40
2018-10-19T02:51:32.243Z,86.10
2018-10-19T02:54:01.771Z,85.20
2018-10-19T02:56:31.002Z,85.70
2018-10-19T02:59:00.527Z,85.90
2018-10-19T03:01:29.782Z,85.80
2018-10-19T03:03:59.742Z,78.80
2018-10-19T03:06:29.799Z,78.70
2018-10-19T03:08:59.294Z,80.20
2018-10-19T03:11:30.768Z,79.20
2018-10-19T03:14:00.432Z,76.40
2018-10-19T03:16:30.639Z,77.10
2018-10-19T03:19:00.491Z,75.00
2018-10-19T03:21:30.780Z,74.70
2018-10-19T03:24:00.094Z,82.70
2018-10-19T03:26:32.222Z,90.30
2018-10-19T03:29:01.861Z,90.90
2018-10-19T03:31:31.262Z,91.60
2018-10-19T03:34:00.857Z,92.30
2018-10-19T03:36:30.837Z,92.80
2018-10-19T03:39:00.236Z,91.10
2018-10-19T03:41:30.341Z,90.40
2018-10-19T03:43:59.570Z,91.80
2018-10-19T03:46:30.078Z,91.50
2018-10-19T03:49:00.551Z,91.70
2018-10-19T03:51:34.191Z,91.80
2018-10-19T03:54:04.577Z,92.70
2018-10-19T03:56:34.697Z,92.30
2018-10-19T03:59:04.386Z,92.10
2018-10-19T04:01:33.628Z,92.00
2018-10-19T04:04:02.872Z,90.50
2018-10-19T04:06:32.183Z,89.50
2018-10-19T04:09:01.472Z,87.70
2018-10-19T04:11:32.750Z,85.90
2018-10-19T04:14:02.796Z,86.40
2018-10-19T04:16:32.285Z,88.30
2018-10-19T04:19:01.520Z,85.80
2018-10-19T04:21:33.257Z,86.00
2018-10-19T04:24:27.050Z,87.00
2018-10-19T04:26:58.162Z,87.50
2018-10-19T04:29:30.323Z,88.80
2018-10-19T04:32:01.276Z,91.90
2018-10-19T04:34:31.458Z,92.40
2018-10-19T04:37:06.448Z,92.60
2018-10-19T04:39:36.071Z,93.10
2018-10-19T04:42:08.246Z,93.70
2018-10-19T04:44:37.266Z,94.10
2018-10-19T04:47:07.005Z,94.20
2018-10-19T04:49:36.634Z,94.60
2018-10-19T04:52:05.995Z,95.50
2018-10-19T04:54:35.536Z,95.40
2018-10-19T04:57:04.970Z,95.60
2018-10-19T04:59:34.374Z,94.40
2018-10-19T05:02:03.630Z,92.50
2018-10-19T05:04:34.745Z,92.60
2018-10-19T05:07:04.101Z,93.20
2018-10-19T05:09:34.091Z,93.00
2018-10-19T05:12:04.217Z,93.50
2018-10-19T05:14:35.476Z,93.70
2018-10-19T05:17:05.071Z,93.80
2018-10-19T05:19:34.498Z,94.20
2018-10-19T05:22:07.075Z,94.30
2018-10-19T05:24:36.935Z,93.00
2018-10-19T05:27:08.556Z,92.50
2018-10-19T05:29:39.997Z,90.70
2018-10-19T05:32:10.145Z,90.20
2018-10-19T05:34:40.046Z,90.20
2018-10-19T05:37:09.343Z,89.50
2018-10-19T05:39:38.736Z,90.00
2018-10-19T05:42:08.777Z,91.00
2018-10-19T05:44:37.974Z,91.60
2018-10-19T05:47:07.874Z,91.20
2018-10-19T05:49:40.686Z,89.10
2018-10-19T05:52:10.745Z,87.90
2018-10-19T05:54:39.872Z,86.00
2018-10-19T05:57:09.146Z,83.60
2018-10-19T05:59:39.438Z,79.70
2018-10-19T06:02:08.836Z,77.30
2018-10-19T06:04:38.304Z,80.10
2018-10-19T06:07:07.811Z,83.10
2018-10-19T06:09:37.586Z,87.80
2018-10-19T06:12:07.721Z,90.80
2018-10-19T06:14:38.202Z,92.40
2018-10-19T06:17:07.705Z,93.10
2018-10-19T06:19:37.196Z,93.90
2018-10-19T06:22:06.742Z,95.10
2018-10-19T06:24:36.784Z,94.50
2018-10-19T06:27:06.389Z,95.30
2018-10-19T06:29:37.079Z,95.30
2018-10-19T06:32:06.913Z,94.50
2018-10-19T06:34:36.501Z,94.30
2018-10-19T06:37:06.063Z,94.50
2018-10-19T06:39:36.011Z,94.50
2018-10-19T06:42:06.370Z,94.50
2018-10-19T06:44:37.038Z,94.40
2018-10-19T06:47:07.079Z,93.10
2018-10-19T06:49:37.057Z,91.50
2018-10-19T06:52:06.300Z,90.90
2018-10-19T06:54:37.143Z,89.30
2018-10-19T06:57:07.537Z,88.40
2018-10-19T06:59:39.187Z,84.40
2018-10-19T07:02:09.360Z,85.10
2018-10-19T07:04:39.434Z,86.70
2018-10-19T07:07:09.318Z,85.90
2018-10-19T07:09:41.369Z,82.40
2018-10-19T07:12:10.634Z,80.60
2018-10-19T07:14:39.832Z,79.90
2018-10-19T07:17:10.512Z,79.90
2018-10-19T07:19:39.798Z,78.00
2018-10-19T07:22:10.022Z,77.40
2018-10-19T07:24:39.546Z,77.50
2018-10-19T07:27:09.197Z,76.60
2018-10-19T07:29:39.166Z,76.10
2018-10-19T07:32:08.406Z,77.00
2018-10-19T07:34:38.475Z,77.00
2018-10-19T07:37:08.969Z,80.10
2018-10-19T07:39:40.965Z,80.80
2018-10-19T07:42:11.019Z,79.10
2018-10-19T07:44:40.292Z,78.00
2018-10-19T07:47:10.023Z,78.80
2018-10-19T07:49:40.013Z,81.00
2018-10-19T07:52:09.257Z,79.90
2018-10-19T07:54:39.521Z,81.30
2018-10-19T07:57:09.851Z,82.40
2018-10-19T07:59:41.045Z,80.60
2018-10-19T08:02:11.248Z,79.90
2018-10-19T08:04:41.742Z,81.90
2018-10-19T08:07:11.982Z,83.40
2018-10-19T08:09:41.972Z,84.50
2018-10-19T08:12:11.473Z,82.90
2018-10-19T08:14:41.482Z,81.80
2018-10-19T08:17:11.115Z,81.60
2018-10-19T08:19:40.890Z,81.70
2018-10-19T08:22:10.695Z,80.40
2018-10-19T08:24:40.891Z,80.20
2018-10-19T08:27:10.313Z,79.00
2018-10-19T08:29:40.122Z,78.90
2018-10-19T08:32:09.517Z,80.60
2018-10-19T08:34:40.389Z,80.30
2018-10-19T08:37:09.739Z,81.50
2018-10-19T08:39:39.300Z,81.30
2018-10-19T08:42:08.995Z,81.50
2018-10-19T08:44:38.164Z,80.10
2018-10-19T08:47:08.281Z,79.40
2018-10-19T08:49:37.444Z,81.60
2018-10-19T08:52:06.708Z,80.10
2018-10-19T08:54:36.005Z,79.90
2018-10-19T08:57:05.555Z,78.50
2018-10-19T08:59:35.369Z,74.30
2018-10-19T09:02:04.974Z,75.60
2018-10-19T09:04:34.176Z,76.60
2018-10-19T09:07:04.409Z,76.40
2018-10-19T09:09:34.812Z,74.50
2018-10-19T09:12:04.060Z,72.80
2018-10-19T09:14:50.426Z,71.80
2018-10-19T09:17:22.616Z,68.40
2018-10-19T09:19:51.972Z,68.80
2018-10-19T09:22:21.470Z,67.80
2018-10-19T09:24:51.217Z,65.10
2018-10-19T09:27:21.682Z,66.80
2018-10-19T09:29:50.847Z,66.30
2018-10-19T09:32:21.845Z,66.60
2018-10-19T09:34:51.024Z,61.70
2018-10-19T09:37:20.320Z,62.40
2018-10-19T09:39:49.537Z,61.80
2018-10-19T09:42:18.836Z,60.20
2018-10-19T09:44:50.740Z,58.50
2018-10-19T09:47:21.745Z,57.30
2018-10-19T09:49:50.896Z,58.40
2018-10-19T09:53:26.183Z,57.20
2018-10-19T09:55:55.392Z,55.60
2018-10-19T09:58:24.702Z,56.00
2018-10-19T10:00:57.253Z,55.90
2018-10-19T10:03:27.056Z,55.20
2018-10-19T10:05:57.063Z,56.50
2018-10-19T10:08:27.352Z,57.50
2018-10-19T10:10:56.583Z,56.50
2018-10-19T10:13:27.124Z,57.30
2018-10-19T10:15:56.723Z,54.70
2018-10-19T10:18:26.757Z,54.20
2018-10-19T10:20:55.997Z,52.90
2018-10-19T10:23:25.222Z,52.40
2018-10-19T10:25:54.480Z,51.90
2018-10-19T10:28:23.738Z,51.40
2018-10-19T10:30:52.963Z,51.40
2018-10-19T10:33:22.172Z,49.20
2018-10-19T10:35:51.744Z,48.30
2018-10-19T10:38:21.133Z,49.20
2018-10-19T10:40:50.576Z,48.30
2018-10-19T10:43:21.086Z,48.00
2018-10-19T10:45:50.339Z,48.60
2018-10-19T10:48:19.755Z,47.20
2018-10-19T10:50:49.727Z,46.50
2018-10-19T10:53:19.321Z,46.40
2018-10-19T10:55:49.612Z,47.80
2018-10-19T10:58:19.810Z,46.00
2018-10-19T11:00:49.262Z,44.30
2018-10-19T11:03:18.727Z,43.80
2018-10-19T11:05:49.434Z,43.20
2018-10-19T11:08:19.700Z,43.60
2018-10-19T11:10:50.122Z,45.50
2018-10-19T11:13:19.329Z,43.50
2018-10-19T11:15:49.434Z,41.80
2018-10-19T11:18:18.759Z,40.90
2018-10-19T11:20:48.753Z,40.80
2018-10-19T11:23:18.285Z,40.20
2018-10-19T11:25:49.867Z,40.10
2018-10-19T11:28:19.119Z,39.30
2018-10-19T11:30:50.971Z,38.60
2018-10-19T11:33:20.296Z,40.90
2018-10-19T11:35:50.826Z,39.10
2018-10-19T11:38:21.068Z,38.40
2018-10-19T11:40:52.144Z,37.80
2018-10-19T11:43:21.997Z,36.10
2018-10-19T11:45:52.716Z,37.00
2018-10-19T11:48:23.054Z,37.50
2018-10-19T11:50:52.366Z,36.30
2018-10-19T11:53:21.621Z,37.40
2018-10-19T11:55:52.172Z,37.40
2018-10-19T11:58:22.104Z,34.70
2018-10-19T12:00:51.338Z,35.60
2018-10-19T12:03:20.949Z,36.40
2018-10-19T12:05:51.387Z,35.20
2018-10-19T12:08:22.845Z,35.20
2018-10-19T12:10:52.341Z,34.70
2018-10-19T12:13:21.893Z,35.40
2018-10-19T12:15:52.061Z,34.70
2018-10-19T12:18:22.351Z,35.20
2018-10-19T12:20:52.201Z,34.90
2018-10-19T12:23:21.456Z,34.90
2018-10-19T12:25:54.276Z,33.50
2018-10-19T12:28:23.566Z,34.00
2018-10-19T12:30:55.127Z,33.30
2018-10-19T12:33:24.296Z,33.80
2018-10-19T12:35:53.686Z,33.60
2018-10-19T12:38:24.251Z,33.40
2018-10-19T12:40:53.560Z,33.20
2018-10-19T12:43:22.784Z,31.50
2018-10-19T12:46:34.809Z,31.40
2018-10-19T12:49:04.143Z,32.40
2018-10-19T12:51:33.377Z,31.40
2018-10-19T12:54:02.739Z,30.60
2018-10-19T12:56:33.926Z,31.70
2018-10-19T12:59:03.177Z,31.30
2018-10-19T13:01:33.494Z,30.50
2018-10-19T13:04:03.261Z,32.20
2018-10-19T13:06:32.607Z,30.90
2018-10-19T13:09:01.950Z,30.30
2018-10-19T13:11:31.199Z,31.90
2018-10-19T13:14:01.157Z,30.30
2018-10-19T13:16:30.890Z,30.90
2018-10-19T13:19:00.402Z,29.10
2018-10-19T13:21:30.154Z,28.60
2018-10-19T13:23:59.390Z,28.70
2018-10-19T13:26:28.653Z,29.30
2018-10-19T13:28:57.887Z,29.00
2018-10-19T13:31:27.648Z,28.80
2018-10-19T13:33:56.928Z,28.20
2018-10-19T13:36:26.525Z,28.30
2018-10-19T13:38:57.032Z,28.30
2018-10-19T13:41:26.275Z,26.40
2018-10-19T13:43:55.436Z,25.30
2018-10-19T13:46:24.690Z,24.20
2018-10-19T13:48:54.748Z,23.40
2018-10-19T13:51:23.992Z,22.00
2018-10-19T13:53:55.382Z,22.00
2018-10-19T13:56:24.998Z,21.90
2018-10-19T13:58:55.188Z,21.80
2018-10-19T14:01:24.523Z,20.60
2018-10-19T14:03:53.862Z,20.20
2018-10-19T14:06:24.394Z,19.00
2018-10-19T14:08:54.980Z,18.60
2018-10-19T14:11:24.204Z,18.90
2018-10-19T14:13:54.263Z,19.20
2018-10-19T14:16:25.718Z,19.20
2018-10-19T14:18:57.857Z,18.30
2018-10-19T14:21:28.077Z,18.90
2018-10-19T14:23:57.488Z,19.20
2018-10-19T14:26:26.769Z,19.70
2018-10-19T14:28:56.038Z,20.10
2018-10-19T14:31:25.306Z,20.20
2018-10-19T14:33:55.504Z,18.90
2018-10-19T14:36:25.587Z,19.20
2018-10-19T14:38:55.950Z,18.60
2018-10-19T14:41:25.330Z,19.00
2018-10-19T14:43:55.360Z,18.10
2018-10-19T14:46:24.665Z,19.00
2018-10-19T14:48:55.792Z,19.20
2018-10-19T14:51:25.027Z,18.90
2018-10-19T14:53:55.793Z,19.40
2018-10-19T14:56:25.052Z,19.80
2018-10-19T14:58:54.359Z,20.60
2018-10-19T15:01:23.627Z,21.40
2018-10-19T15:03:52.918Z,22.60
2018-10-19T15:06:22.742Z,22.30
2018-10-19T15:08:52.260Z,23.10
2018-10-19T15:11:21.874Z,24.10
2018-10-19T15:13:51.003Z,24.90
2018-10-19T15:16:20.271Z,25.10
2018-10-19T15:18:49.925Z,26.20
2018-10-19T15:21:19.387Z,26.70
2018-10-19T15:23:48.677Z,26.90
2018-10-19T15:26:18.010Z,26.50
2018-10-19T15:28:48.174Z,27.60
2018-10-19T15:31:18.280Z,28.00
2018-10-19T15:33:47.534Z,28.10
2018-10-19T15:36:16.791Z,28.80
2018-10-19T15:38:46.061Z,29.40
2018-10-19T15:41:15.896Z,29.80
2018-10-19T15:43:45.345Z,30.10
2018-10-19T15:46:14.633Z,31.60
2018-10-19T15:48:43.874Z,31.80
2018-10-19T15:51:13.209Z,31.70
2018-10-19T15:53:42.531Z,31.40
2018-10-19T15:56:11.791Z,33.00
2018-10-19T15:58:41.188Z,33.10
2018-10-19T16:01:10.549Z,33.90
2018-10-19T16:03:39.937Z,34.70
2018-10-19T16:06:09.305Z,34.60
2018-10-19T16:08:39.426Z,34.90
2018-10-19T16:11:08.935Z,35.60
2018-10-19T16:13:39.154Z,35.50
2018-10-19T16:16:08.737Z,36.80
2018-10-19T16:18:38.171Z,36.60
2018-10-19T16:21:07.576Z,38.40
2018-10-19T16:23:36.770Z,40.80
2018-10-19T16:26:06.083Z,42.40
2018-10-19T16:28:36.392Z,44.20
2018-10-19T16:31:05.826Z,47.40
2018-10-19T16:33:36.779Z,50.90
2018-10-19T16:36:07.176Z,53.20
2018-10-19T16:38:36.459Z,53.20
2018-10-19T16:41:06.267Z,53.40
2018-10-19T16:43:35.489Z,54.50
2018-10-19T16:46:04.965Z,56.50
2018-10-19T16:48:34.237Z,58.30
2018-10-19T16:51:03.570Z,58.30
2018-10-19T16:53:32.820Z,58.70
2018-10-19T16:56:02.375Z,59.90
2018-10-19T16:58:33.463Z,60.40
2018-10-19T17:01:02.852Z,61.70
2018-10-19T17:03:32.140Z,61.80
2018-10-19T17:06:03.481Z,61.50
2018-10-19T17:08:33.026Z,61.60
2018-10-19T17:11:03.964Z,66.60
2018-10-19T17:13:33.992Z,66.10
2018-10-19T17:16:04.679Z,67.40
2018-10-19T17:18:33.929Z,67.00
2018-10-19T17:21:03.394Z,69.20
2018-10-19T17:23:33.455Z,69.00
2018-10-19T17:26:05.224Z,67.10
2018-10-19T17:28:34.496Z,69.80
2018-10-19T17:31:03.972Z,69.00
2018-10-19T17:33:33.367Z,68.60
2018-10-19T17:36:04.945Z,71.60
2018-10-19T17:38:35.042Z,72.70
2018-10-19T17:41:04.637Z,74.30
2018-10-19T17:43:34.175Z,73.80
2018-10-19T17:46:03.824Z,71.90
2018-10-19T17:48:33.940Z,73.50
2018-10-19T17:51:04.109Z,76.20
2018-10-19T17:53:33.563Z,75.80
2018-10-19T17:56:04.737Z,77.20
2018-10-19T17:58:35.995Z,80.40
2018-10-19T18:01:05.785Z,78.50
2018-10-19T18:03:35.059Z,77.00
2018-10-19T18:06:05.067Z,77.10
2018-10-19T18:08:34.450Z,77.70
2018-10-19T18:11:05.143Z,74.90
2018-10-19T18:13:34.585Z,72.80
2018-10-19T18:16:08.328Z,74.40
2018-10-19T18:18:38.436Z,77.00
2018-10-19T18:21:08.358Z,76.40
2018-10-19T18:23:40.911Z,76.40
2018-10-19T18:26:10.298Z,81.60
2018-10-19T18:28:39.581Z,80.50
2018-10-19T18:31:12.783Z,78.80
2018-10-19T18:33:43.152Z,75.00
2018-10-19T18:36:15.224Z,77.60
2018-10-19T18:38:44.497Z,79.50
2018-10-19T18:41:14.918Z,79.40
2018-10-19T18:43:44.198Z,81.90
2018-10-19T18:46:18.732Z,83.20
2018-10-19T18:48:48.187Z,83.50
2018-10-19T18:51:18.120Z,83.20
2018-10-19T18:53:47.889Z,84.70
2018-10-19T18:56:17.501Z,82.30
2018-10-19T18:58:47.208Z,80.50
2018-10-19T19:01:17.516Z,77.90
2018-10-19T19:03:46.839Z,76.90
2018-10-19T19:06:18.677Z,77.70
2018-10-19T19:08:49.791Z,81.30
2018-10-19T19:11:19.428Z,82.60
2018-10-19T19:13:50.525Z,83.90
2018-10-19T19:16:26.365Z,86.60
2018-10-19T19:18:55.682Z,85.10
2018-10-19T19:21:25.216Z,80.90
2018-10-19T19:24:00.272Z,80.40
2018-10-19T19:26:29.782Z,83.60
2018-10-19T19:28:59.566Z,82.30
2018-10-19T19:31:28.916Z,81.90
2018-10-19T19:34:03.617Z,80.90
2018-10-19T19:36:33.990Z,83.30
2018-10-19T19:39:05.545Z,81.80
2018-10-19T19:41:42.447Z,80.80
2018-10-19T19:44:11.905Z,84.20
2018-10-19T19:46:41.169Z,86.90
2018-10-19T19:49:15.795Z,90.40
2018-10-19T19:51:45.036Z,90.60
2018-10-19T19:54:14.306Z,89.60
2018-10-19T19:56:43.644Z,89.10
2018-10-19T19:59:14.254Z,89.90
2018-10-19T20:01:44.205Z,86.70
2018-10-19T20:04:13.431Z,85.90
2018-10-19T20:06:43.736Z,91.00
2018-10-19T20:09:13.009Z,91.40
2018-10-19T20:11:42.612Z,88.20
2018-10-19T20:14:12.177Z,83.90
2018-10-19T20:16:42.111Z,83.90
2018-10-19T20:19:11.568Z,87.70
2018-10-19T20:21:41.247Z,87.70
2018-10-19T20:24:11.491Z,87.50
2018-10-19T20:26:42.855Z,88.70
2018-10-19T20:29:13.212Z,85.00
2018-10-19T20:31:43.559Z,83.80
2018-10-19T20:34:12.842Z,82.80
2018-10-19T20:36:44.131Z,83.50
2018-10-19T20:39:14.120Z,82.50
2018-10-19T20:41:43.339Z,83.50
2018-10-19T20:44:12.561Z,83.50
2018-10-19T20:46:41.940Z,84.70
2018-10-19T20:49:13.170Z,85.00
2018-10-19T20:51:42.860Z,86.70
2018-10-19T20:54:13.147Z,87.50
2018-10-19T20:56:43.505Z,88.00
2018-10-19T20:59:13.121Z,86.30
2018-10-19T21:01:42.276Z,81.00
2018-10-19T21:04:13.249Z,78.00
2018-10-19T21:06:44.472Z,80.60
2018-10-19T21:09:13.714Z,84.40
2018-10-19T21:11:42.975Z,86.90
2018-10-19T21:14:13.020Z,89.10
2018-10-19T21:16:42.272Z,87.40
2018-10-19T21:19:12.517Z,88.00
2018-10-19T21:21:41.725Z,90.00
2018-10-19T21:24:12.194Z,90.30
2018-10-19T21:26:41.661Z,90.50
2018-10-19T21:29:11.781Z,90.20
2018-10-19T21:31:40.958Z,89.50
2018-10-19T21:34:10.199Z,89.00
2018-10-19T21:36:40.588Z,88.90
2018-10-19T21:39:11.208Z,87.80
2018-10-19T21:41:40.667Z,83.70
2018-10-19T21:44:09.959Z,81.90
2018-10-19T21:46:41.213Z,85.80
2018-10-19T21:49:10.410Z,87.00
2018-10-19T21:51:39.775Z,87.50
2018-10-19T21:54:08.911Z,87.60
2018-10-19T21:56:38.344Z,88.40
2018-10-19T21:59:07.597Z,86.50
2018-10-19T22:01:36.773Z,88.60
2018-10-19T22:04:06.220Z,89.70
2018-10-19T22:06:35.570Z,88.60
2018-10-19T22:09:08.004Z,88.50
2018-10-19T22:11:37.593Z,88.00
2018-10-19T22:14:07.060Z,83.90
2018-10-19T22:16:36.372Z,84.60
2018-10-19T22:19:06.479Z,85.20
2018-10-19T22:21:36.527Z,85.60
2018-10-19T22:24:06.357Z,87.30
2018-10-19T22:26:38.002Z,89.20
2018-10-19T22:29:07.707Z,85.70
2018-10-19T22:31:36.876Z,85.60
2018-10-19T22:34:06.127Z,86.50
2018-10-19T22:36:35.481Z,87.30
2018-10-19T22:39:06.669Z,86.00
2018-10-19T22:41:40.143Z,85.10
2018-10-19T22:44:09.298Z,82.60
2018-10-19T22:46:39.643Z,80.00
2018-10-19T22:49:08.932Z,78.70
2018-10-19T22:51:38.036Z,81.20
2018-10-19T22:54:07.230Z,83.90
2018-10-19T22:56:36.720Z,87.20
2018-10-19T22:59:06.109Z,89.00
2018-10-19T23:01:35.471Z,90.00
2018-10-19T23:04:06.008Z,85.10
2018-10-19T23:06:35.282Z,84.30
2018-10-19T23:09:06.290Z,84.90
2018-10-19T23:11:35.562Z,83.80
2018-10-19T23:14:04.887Z,83.00
2018-10-19T23:16:36.199Z,86.30
2018-10-19T23:19:06.049Z,88.20
2018-10-19T23:21:35.360Z,88.00
2018-10-19T23:24:04.955Z,87.80
2018-10-19T23:26:34.275Z,86.80
2018-10-19T23:29:03.753Z,86.80
2018-10-19T23:31:33.106Z,87.40
2018-10-19T23:34:02.251Z,86.80
2018-10-19T23:36:32.921Z,86.00
2018-10-19T23:39:02.471Z,86.80
2018-10-19T23:41:31.932Z,86.80
2018-10-19T23:44:01.127Z,86.10
2018-10-19T23:46:31.745Z,83.80
2018-10-19T23:49:01.004Z,84.00
2018-10-19T23:51:30.191Z,82.40
2018-10-19T23:54:01.475Z,80.00
2018-10-19T23:56:32.841Z,78.20
2018-10-19T23:59:02.320Z,77.30
